Time;durP1;ratioP1;P1;durP2;ratioP2;P2;SDS_P1;SDS_P2;PMS_P1;PMS_P2;Temp;Humidity;BMP_temperature;BMP_pressure;BME280_temperature;BME280_humidity;BME280_pressure;Samples;Min_cycle;Max_cycle;Signal;HPM_P1;HPM_P2
2022/03/30 00:02:15;;;;;;;40.63;18.15;;;;;;;8.29;42.89;100104.23;1714950;83;25438;-61
2022/03/30 00:04:42;;;;;;;31.90;16.42;;;;;;;8.27;42.86;100106.20;1714962;83;27495;-61
2022/03/30 00:07:09;;;;;;;39.98;17.77;;;;;;;8.24;43.34;100097.08;1688641;83;25929;-61
2022/03/30 00:09:36;;;;;;;47.88;18.27;;;;;;;8.21;43.42;100093.33;1744531;82;25688;-61
2022/03/30 00:12:03;;;;;;;42.45;17.67;;;;;;;8.15;43.87;100098.27;1744368;82;25852;-62
2022/03/30 00:14:30;;;;;;;40.05;18.50;;;;;;;8.09;43.86;100095.27;1744373;82;25570;-61
2022/03/30 00:16:57;;;;;;;37.65;18.12;;;;;;;8.01;43.85;100101.33;1744575;82;27477;-62
2022/03/30 00:19:25;;;;;;;36.70;16.73;;;;;;;7.94;43.75;100107.72;1744179;82;26363;-60
2022/03/30 00:21:51;;;;;;;40.58;18.70;;;;;;;7.89;43.68;100116.63;1744473;82;25622;-61
2022/03/30 00:24:18;;;;;;;36.15;16.95;;;;;;;7.85;43.77;100116.56;1744681;82;26540;-62
2022/03/30 00:26:45;;;;;;;39.18;17.92;;;;;;;7.79;43.64;100113.92;1744549;82;25754;-63
2022/03/30 00:29:12;;;;;;;35.15;18.67;;;;;;;7.74;43.57;100112.63;1744370;82;27517;-62
2022/03/30 00:31:39;;;;;;;43.00;17.15;;;;;;;7.73;43.54;100117.63;1744423;82;25674;-61
2022/03/30 00:34:06;;;;;;;44.65;18.50;;;;;;;7.71;43.66;100120.45;1743565;81;25660;-62
2022/03/30 00:36:33;;;;;;;37.17;17.10;;;;;;;7.66;43.99;100118.67;1739989;82;25788;-62
2022/03/30 00:39:00;;;;;;;32.17;15.83;;;;;;;7.60;44.34;100131.23;1726461;83;25531;-62
2022/03/30 00:41:28;;;;;;;35.25;17.32;;;;;;;7.58;44.60;100130.50;1780105;80;27506;-61
2022/03/30 00:43:55;;;;;;;37.73;17.60;;;;;;;7.56;44.53;100126.63;1739940;82;25731;-61
2022/03/30 00:46:22;;;;;;;38.08;17.95;;;;;;;7.54;44.34;100125.91;1740085;82;25506;-61
2022/03/30 00:48:49;;;;;;;32.67;17.35;;;;;;;7.55;44.41;100122.77;1740378;82;25780;-61
2022/03/30 00:51:16;;;;;;;36.68;17.67;;;;;;;7.54;44.54;100133.11;1739995;82;25934;-60
2022/03/30 00:53:42;;;;;;;30.45;16.93;;;;;;;7.52;44.65;100133.25;1740468;82;27436;-61
2022/03/30 00:56:09;;;;;;;38.48;17.37;;;;;;;7.52;44.49;100133.25;1740139;82;25681;-63
2022/03/30 00:58:37;;;;;;;34.75;17.12;;;;;;;7.52;44.85;100131.41;1740170;82;25641;-63
2022/03/30 01:01:05;;;;;;;32.23;16.90;;;;;;;7.49;44.69;100128.15;1740659;82;25797;-62
2022/03/30 01:03:32;;;;;;;39.58;18.17;;;;;;;7.48;45.11;100128.66;1731674;82;25773;-62
2022/03/30 01:05:59;;;;;;;37.80;17.32;;;;;;;7.46;45.06;100132.41;1740171;82;29590;-62
2022/03/30 01:08:25;;;;;;;41.90;18.32;;;;;;;7.42;45.15;100126.48;1731723;82;25748;-61
2022/03/30 01:10:53;;;;;;;34.90;17.42;;;;;;;7.41;45.59;100129.30;1729852;82;25727;-62
2022/03/30 01:13:20;;;;;;;37.28;16.57;;;;;;;7.43;45.92;100128.19;1729963;82;25815;-62
2022/03/30 01:15:48;;;;;;;36.75;16.45;;;;;;;7.38;45.46;100122.39;1729780;82;25712;-62
2022/03/30 01:18:16;;;;;;;37.00;17.10;;;;;;;7.35;45.36;100117.29;1730135;82;27498;-62
2022/03/30 01:20:52;;;;;;;47.35;17.50;;;;;;;7.38;45.66;100122.86;1730198;82;25719;-62
2022/03/30 01:23:19;;;;;;;34.78;16.40;;;;;;;7.33;45.66;100113.42;1729608;82;26424;-61
2022/03/30 01:25:46;;;;;;;42.83;18.05;;;;;;;7.29;45.82;100113.81;1729929;82;25751;-61
2022/03/30 01:28:14;;;;;;;39.10;16.73;;;;;;;7.29;46.03;100116.48;1729976;82;25790;-60
2022/03/30 01:33:27;;;;;;;34.58;17.02;;;;;;;7.27;46.00;100114.42;1729788;82;25758;-62
2022/03/30 01:35:54;;;;;;;32.98;17.57;;;;;;;7.25;46.07;100116.38;1719648;82;25691;-63
2022/03/30 01:38:21;;;;;;;29.35;16.48;;;;;;;7.24;46.10;100114.67;1705191;84;25816;-61
2022/03/30 01:40:48;;;;;;;30.55;16.85;;;;;;;7.21;46.33;100119.80;1705018;84;25734;-61
2022/03/30 01:43:14;;;;;;;36.28;17.50;;;;;;;7.17;46.50;100117.05;1705120;83;27636;-62
2022/03/30 01:45:41;;;;;;;41.53;18.70;;;;;;;7.12;46.27;100114.77;1700544;84;25781;-62
2022/03/30 01:48:08;;;;;;;31.90;17.62;;;;;;;7.08;46.61;100111.14;1682229;85;25795;-61
2022/03/30 01:50:36;;;;;;;34.03;17.57;;;;;;;7.05;46.49;100110.89;1682154;85;25758;-61
2022/03/30 01:53:03;;;;;;;35.17;18.70;;;;;;;7.04;46.34;100107.85;1682186;85;25924;-62
2022/03/30 01:55:30;;;;;;;34.58;16.85;;;;;;;7.01;46.45;100108.13;1682431;85;27693;-61
2022/03/30 01:57:57;;;;;;;38.23;17.27;;;;;;;6.95;46.77;100104.64;1674927;85;25657;-62
2022/03/30 02:00:26;;;;;;;33.23;16.70;;;;;;;6.87;47.54;100111.46;1684897;85;25690;-62
2022/03/30 02:02:53;;;;;;;38.88;17.12;;;;;;;6.82;47.00;100116.83;1685468;85;25803;-63
2022/03/30 02:05:20;;;;;;;32.70;17.00;;;;;;;6.78;47.69;100117.58;1685600;85;25728;-61
2022/03/30 02:07:48;;;;;;;32.83;18.57;;;;;;;6.70;47.63;100113.36;1684836;84;27482;-61
2022/03/30 02:10:15;;;;;;;30.82;17.12;;;;;;;6.66;47.47;100114.10;1713522;83;25761;-62
2022/03/30 02:12:42;;;;;;;34.18;17.23;;;;;;;6.61;48.06;100112.78;1713371;83;25679;-62
2022/03/30 02:15:10;;;;;;;31.50;17.52;;;;;;;6.57;48.45;100113.52;1713425;83;25862;-61
2022/03/30 02:17:39;;;;;;;35.78;17.75;;;;;;;6.52;48.31;100115.23;1713550;83;25765;-61
2022/03/30 02:20:08;;;;;;;37.85;16.27;;;;;;;6.47;48.68;100110.77;1713145;83;27468;-61
2022/03/30 02:22:35;;;;;;;35.90;17.27;;;;;;;6.41;48.49;100120.61;1713476;83;25518;-60
2022/03/30 02:25:03;;;;;;;31.62;18.20;;;;;;;6.42;48.44;100123.64;1698405;82;25798;-61
2022/03/30 02:27:30;;;;;;;40.25;17.15;;;;;;;6.44;48.52;100119.03;1729831;82;25767;-60
2022/03/30 02:29:57;;;;;;;35.55;16.55;;;;;;;6.45;48.40;100118.06;1730060;82;25909;-61
2022/03/30 02:32:24;;;;;;;39.73;16.70;;;;;;;6.42;48.93;100118.30;1729631;82;27480;-61
2022/03/30 02:34:52;;;;;;;41.45;17.62;;;;;;;6.42;48.86;100112.95;1731685;81;25747;-62
2022/03/30 02:37:19;;;;;;;34.13;17.77;;;;;;;6.41;48.62;100114.80;1737933;82;25486;-63
2022/03/30 02:39:46;;;;;;;39.85;17.37;;;;;;;6.45;48.95;100115.89;1737534;82;25790;-61
2022/03/30 02:42:14;;;;;;;35.58;17.15;;;;;;;6.46;49.03;100114.42;1737694;81;25818;-61
2022/03/30 02:44:41;;;;;;;30.95;17.80;;;;;;;6.44;49.02;100111.02;1737541;82;27476;-61
2022/03/30 02:47:08;;;;;;;41.65;17.98;;;;;;;6.47;49.20;100118.79;1737784;82;26115;-61
2022/03/30 02:49:35;;;;;;;34.13;18.25;;;;;;;6.47;49.39;100120.59;1737537;82;25723;-62
2022/03/30 02:52:04;;;;;;;35.88;18.25;;;;;;;6.44;49.28;100128.88;1737617;82;25831;-62
2022/03/30 02:54:32;;;;;;;35.58;17.57;;;;;;;6.42;49.12;100125.84;1737632;81;25835;-62
2022/03/30 02:56:59;;;;;;;34.35;17.60;;;;;;;6.48;48.78;100125.84;1737677;82;28113;-61
2022/03/30 02:59:26;;;;;;;37.70;18.40;;;;;;;6.49;49.40;100132.02;1737528;82;25442;-62
2022/03/30 03:01:54;;;;;;;32.83;16.27;;;;;;;6.47;49.34;100129.48;1737337;82;25779;-62
2022/03/30 03:04:22;;;;;;;37.80;15.55;;;;;;;6.51;49.05;100128.23;1737519;82;25845;-62
2022/03/30 03:06:49;;;;;;;41.90;16.60;;;;;;;6.53;49.15;100139.66;1735525;82;26068;-63
2022/03/30 03:09:17;;;;;;;30.50;16.12;;;;;;;6.52;49.31;100135.28;1721936;83;27336;-62
2022/03/30 03:11:44;;;;;;;33.60;17.45;;;;;;;6.53;49.37;100133.48;1722056;83;25489;-61
2022/03/30 03:14:10;;;;;;;42.00;16.00;;;;;;;6.53;49.23;100130.80;1722229;83;25745;-62
2022/03/30 03:16:37;;;;;;;33.58;15.83;;;;;;;6.52;49.42;100135.28;1722257;82;26473;-61
2022/03/30 03:19:04;;;;;;;38.78;17.05;;;;;;;6.51;49.74;100138.92;1722336;83;25750;-60
2022/03/30 03:21:30;;;;;;;38.85;17.12;;;;;;;6.49;49.74;100134.22;1722322;83;27566;-61
2022/03/30 03:23:57;;;;;;;32.48;16.82;;;;;;;6.47;50.09;100137.50;1722098;83;25774;-62
2022/03/30 03:26:24;;;;;;;51.65;17.65;;;;;;;6.45;50.66;100143.95;1736214;82;25685;-62
2022/03/30 03:28:52;;;;;;;46.35;17.10;;;;;;;6.40;50.35;100142.48;1737439;82;26089;-62
2022/03/30 03:31:18;;;;;;;39.85;17.67;;;;;;;6.36;50.44;100143.72;1737507;81;25734;-61
2022/03/30 03:33:46;;;;;;;45.20;22.82;;;;;;;6.37;50.46;100141.89;1737351;82;28180;-60
2022/03/30 03:36:12;;;;;;;51.05;24.37;;;;;;;6.42;50.61;100145.02;1723304;81;25510;-61
2022/03/30 03:38:40;;;;;;;38.25;19.40;;;;;;;6.45;50.38;100138.60;1738937;82;25782;-61
2022/03/30 03:41:07;;;;;;;33.63;17.07;;;;;;;6.46;50.14;100151.83;1739061;82;25839;-61
2022/03/30 03:43:34;;;;;;;36.10;16.70;;;;;;;6.46;50.29;100150.95;1739181;82;25768;-60
2022/03/30 03:46:01;;;;;;;47.75;23.30;;;;;;;6.44;50.32;100147.09;1738991;82;27485;-60
2022/03/30 03:48:28;;;;;;;35.55;17.12;;;;;;;6.41;50.43;100144.66;1739110;82;25758;-61
2022/03/30 03:50:55;;;;;;;42.78;17.12;;;;;;;6.37;50.28;100141.38;1738895;82;25458;-62
2022/03/30 03:53:22;;;;;;;61.10;20.95;;;;;;;6.33;50.41;100139.08;1738958;82;26457;-61
2022/03/30 03:55:49;;;;;;;48.45;19.62;;;;;;;6.30;50.72;100130.84;1739150;82;25780;-61
2022/03/30 03:58:16;;;;;;;39.92;16.62;;;;;;;6.30;50.62;100132.17;1738867;82;27475;-61
2022/03/30 04:00:45;;;;;;;42.70;18.17;;;;;;;6.32;50.53;100130.73;1738862;82;25765;-62
2022/03/30 04:03:11;;;;;;;39.42;16.97;;;;;;;6.31;50.72;100135.22;1739171;82;25832;-62
2022/03/30 04:05:38;;;;;;;40.88;17.07;;;;;;;6.34;50.60;100136.78;1738981;82;25800;-62
2022/03/30 04:08:07;;;;;;;43.33;16.37;;;;;;;6.37;50.82;100139.21;1739414;82;25732;-61
2022/03/30 04:10:34;;;;;;;40.85;16.32;;;;;;;6.42;50.71;100130.33;1738995;82;27467;-60
2022/03/30 04:13:02;;;;;;;40.73;17.50;;;;;;;6.44;51.17;100140.91;1738791;82;25685;-62
2022/03/30 04:15:29;;;;;;;35.50;17.07;;;;;;;6.47;50.95;100141.97;1738921;82;25713;-61
2022/03/30 04:17:57;;;;;;;39.08;16.90;;;;;;;6.46;50.74;100139.80;1738752;82;25954;-60
2022/03/30 04:20:25;;;;;;;42.88;17.45;;;;;;;6.47;50.97;100138.83;1739075;81;25788;-60
2022/03/30 04:22:51;;;;;;;37.05;17.10;;;;;;;6.47;50.75;100137.96;1739289;81;27451;-61
2022/03/30 04:25:18;;;;;;;45.33;16.77;;;;;;;6.50;50.84;100141.73;1739154;82;25799;-60
2022/03/30 04:27:49;;;;;;;39.42;17.62;;;;;;;6.49;50.57;100145.37;1739249;82;25679;-60
2022/03/30 04:30:20;;;;;;;36.85;17.67;;;;;;;6.51;50.62;100147.44;1739144;82;25777;-60
2022/03/30 04:32:47;;;;;;;38.92;17.90;;;;;;;6.54;50.66;100149.37;1739256;82;25727;-60
2022/03/30 04:35:25;;;;;;;38.15;17.80;;;;;;;6.58;50.88;100149.50;1738910;82;27514;-60
2022/03/30 04:37:55;;;;;;;38.53;17.77;;;;;;;6.63;50.64;100158.48;1739433;82;25796;-60
2022/03/30 04:40:25;;;;;;;40.95;19.30;;;;;;;6.70;50.87;100150.78;1739229;82;25462;-62
2022/03/30 04:42:53;;;;;;;43.15;17.48;;;;;;;6.76;50.60;100154.30;1739275;82;26440;-62
2022/03/30 04:45:20;;;;;;;49.38;18.30;;;;;;;6.84;50.38;100154.52;1739053;82;25652;-62
2022/03/30 04:47:48;;;;;;;34.15;16.48;;;;;;;6.92;51.19;100149.02;1739428;82;27551;-61
2022/03/30 04:50:15;;;;;;;43.85;17.57;;;;;;;6.94;50.62;100153.25;1739000;82;25843;-60
2022/03/30 04:52:42;;;;;;;38.45;17.12;;;;;;;7.01;50.46;100150.92;1739482;82;25726;-60
2022/03/30 04:55:10;;;;;;;37.67;17.85;;;;;;;7.08;50.35;100148.08;1739195;82;26498;-61
2022/03/30 04:57:40;;;;;;;43.25;16.85;;;;;;;7.19;50.28;100145.83;1740124;82;25820;-61
2022/03/30 05:00:11;;;;;;;44.23;16.82;;;;;;;7.26;50.16;100148.84;1723911;83;27465;-61
2022/03/30 05:02:39;;;;;;;32.98;18.60;;;;;;;7.35;49.85;100146.72;1758181;81;25745;-61
2022/03/30 05:05:09;;;;;;;42.00;18.17;;;;;;;7.44;49.71;100153.13;1724329;82;25767;-60
2022/03/30 05:07:37;;;;;;;39.13;18.32;;;;;;;7.52;49.42;100155.50;1756935;81;26512;-61
2022/03/30 05:10:13;;;;;;;35.48;17.30;;;;;;;7.61;49.32;100154.34;1754792;81;25811;-61
2022/03/30 05:12:41;;;;;;;39.03;17.00;;;;;;;7.70;49.32;100152.21;1755318;81;27448;-61
2022/03/30 05:15:10;;;;;;;28.95;16.87;;;;;;;7.78;49.24;100163.10;1755068;81;25718;-61
2022/03/30 05:17:46;;;;;;;45.50;18.95;;;;;;;7.83;49.12;100160.89;1755265;81;25536;-62
2022/03/30 05:20:15;;;;;;;38.55;17.65;;;;;;;7.89;49.11;100147.43;1755155;81;25795;-62
2022/03/30 05:22:43;;;;;;;36.60;17.60;;;;;;;7.98;49.10;100158.67;1754989;81;25877;-61
2022/03/30 05:25:12;;;;;;;44.18;18.45;;;;;;;8.05;48.78;100148.28;1755118;81;27677;-62
2022/03/30 05:27:40;;;;;;;50.45;18.30;;;;;;;8.14;48.55;100151.99;1755069;81;25672;-61
2022/03/30 05:30:09;;;;;;;39.35;17.48;;;;;;;8.21;48.50;100153.14;1754971;81;25704;-61
2022/03/30 05:32:36;;;;;;;46.37;17.80;;;;;;;8.32;48.23;100160.22;1755312;81;26555;-62
2022/03/30 05:35:05;;;;;;;46.95;19.42;;;;;;;8.39;48.08;100151.97;1755153;81;25737;-62
2022/03/30 05:37:32;;;;;;;46.85;19.82;;;;;;;8.48;48.13;100153.50;1751700;81;27418;-62
2022/03/30 05:40:00;;;;;;;43.70;17.75;;;;;;;8.54;47.94;100145.77;1751065;81;25790;-62
2022/03/30 05:42:27;;;;;;;60.40;17.75;;;;;;;8.64;48.00;100151.64;1751198;81;25419;-62
2022/03/30 05:44:54;;;;;;;36.83;17.10;;;;;;;8.71;48.04;100147.41;1751193;81;26459;-61
2022/03/30 05:47:21;;;;;;;46.58;17.95;;;;;;;8.76;48.12;100150.02;1751179;81;25798;-67
2022/03/30 05:49:48;;;;;;;31.68;17.00;;;;;;;8.84;47.92;100145.80;1750989;81;29551;-62
2022/03/30 05:52:16;;;;;;;37.90;17.00;;;;;;;8.89;47.69;100147.06;1751056;81;25690;-62
2022/03/30 05:54:42;;;;;;;47.35;17.80;;;;;;;8.97;47.45;100149.06;1751102;81;25770;-61
2022/03/30 05:57:10;;;;;;;43.40;19.73;;;;;;;9.03;47.39;100148.48;1751478;81;26456;-62
2022/03/30 05:59:41;;;;;;;39.67;17.65;;;;;;;9.14;47.40;100151.53;1751076;81;25821;-61
2022/03/30 06:02:12;;;;;;;57.62;20.37;;;;;;;9.24;47.23;100153.69;1751011;81;27537;-62
2022/03/30 06:04:45;;;;;;;51.73;20.12;;;;;;;9.33;47.03;100145.29;1750962;81;25793;-62
2022/03/30 06:07:12;;;;;;;48.20;18.60;;;;;;;9.43;46.95;100145.27;1749034;81;25750;-62
2022/03/30 06:09:39;;;;;;;47.60;18.52;;;;;;;9.53;46.71;100138.55;1743553;82;26528;-61
2022/03/30 06:12:08;;;;;;;56.92;21.37;;;;;;;9.63;46.77;100139.38;1743440;81;25971;-60
2022/03/30 06:14:35;;;;;;;61.85;19.98;;;;;;;9.70;46.57;100141.82;1743434;81;28524;-60
2022/03/30 06:17:07;;;;;;;41.13;17.62;;;;;;;9.80;46.37;100143.62;1743484;82;25676;-59
2022/03/30 06:19:35;;;;;;;45.95;19.75;;;;;;;9.90;46.26;100136.39;1743467;82;25826;-61
2022/03/30 06:22:08;;;;;;;38.15;19.45;;;;;;;10.00;46.18;100136.33;1743602;82;25788;-62
2022/03/30 06:24:40;;;;;;;45.85;19.80;;;;;;;10.11;46.06;100144.21;1743383;82;25639;-61
2022/03/30 06:27:10;;;;;;;47.20;20.15;;;;;;;10.21;46.04;100136.59;1743653;82;27399;-61
2022/03/30 06:29:39;;;;;;;57.95;20.52;;;;;;;10.31;45.91;100131.98;1743255;82;25832;-61
2022/03/30 06:32:08;;;;;;;40.92;20.35;;;;;;;10.43;45.66;100132.68;1743695;81;25947;-62
2022/03/30 06:34:37;;;;;;;61.33;22.07;;;;;;;10.53;45.47;100132.13;1743468;81;26749;-62
2022/03/30 06:37:05;;;;;;;51.28;21.62;;;;;;;10.63;45.37;100130.19;1743887;81;25489;-61
2022/03/30 06:39:36;;;;;;;46.68;21.30;;;;;;;10.75;45.11;100128.63;1744605;82;28198;-61
2022/03/30 06:42:04;;;;;;;63.83;23.92;;;;;;;10.85;44.85;100133.95;1744666;82;25710;-62
2022/03/30 06:44:35;;;;;;;52.60;22.48;;;;;;;10.96;44.65;100139.95;1744609;82;25682;-62
2022/03/30 06:46:59;;;;;;;55.65;24.27;;;;;;;11.10;44.50;100140.38;1743576;82;25716;-62
2022/03/30 06:49:26;;;;;;;56.25;24.80;;;;;;;11.19;44.37;100140.80;1744580;82;25445;-61
2022/03/30 06:51:53;;;;;;;77.10;25.02;;;;;;;11.31;44.27;100136.52;1744467;82;27548;-61
2022/03/30 06:54:20;;;;;;;57.73;28.05;;;;;;;11.42;44.07;100136.27;1744499;82;25437;-61
2022/03/30 06:56:47;;;;;;;58.50;26.25;;;;;;;11.52;43.86;100142.37;1744673;82;25450;-61
2022/03/30 06:59:14;;;;;;;70.40;27.07;;;;;;;11.64;43.74;100138.95;1744539;81;25789;-61
2022/03/30 07:01:42;;;;;;;76.72;24.90;;;;;;;11.77;43.34;100139.86;1744813;82;25721;-62
2022/03/30 07:04:08;;;;;;;61.50;24.12;;;;;;;11.89;43.26;100136.38;1745070;82;28440;-62
2022/03/30 07:06:35;;;;;;;65.50;24.18;;;;;;;12.01;42.96;100135.63;1744598;82;25623;-62
2022/03/30 07:11:47;;;;;;;58.40;21.35;;;;;;;12.29;42.45;100136.23;1744582;81;25760;-62
2022/03/30 07:14:14;;;;;;;53.35;21.35;;;;;;;12.46;41.97;100134.97;1744573;82;25676;-62
2022/03/30 07:16:41;;;;;;;64.50;22.58;;;;;;;12.56;41.56;100134.81;1744615;82;27478;-62
2022/03/30 07:19:08;;;;;;;49.60;21.45;;;;;;;12.66;41.27;100124.72;1744786;82;25661;-62
2022/03/30 07:21:35;;;;;;;47.35;21.02;;;;;;;12.77;41.21;100123.06;1744585;81;25766;-62
2022/03/30 07:24:02;;;;;;;51.00;21.75;;;;;;;12.91;41.02;100125.58;1744728;82;25800;-62
2022/03/30 07:26:28;;;;;;;50.05;19.98;;;;;;;13.06;40.87;100125.77;1744695;82;25988;-62
2022/03/30 07:28:56;;;;;;;44.88;19.55;;;;;;;13.21;40.71;100123.23;1744584;80;27701;-62
2022/03/30 07:31:23;;;;;;;56.55;20.55;;;;;;;13.35;40.54;100116.30;1744602;82;25724;-61
2022/03/30 07:33:50;;;;;;;46.75;18.85;;;;;;;13.52;40.36;100116.31;1744470;82;25766;-62
2022/03/30 07:36:16;;;;;;;48.15;19.42;;;;;;;13.65;40.17;100115.28;1745150;81;25799;-62
2022/03/30 07:38:43;;;;;;;39.38;17.92;;;;;;;13.78;39.98;100114.74;1751164;81;25794;-61
2022/03/30 07:41:10;;;;;;;44.73;20.02;;;;;;;13.89;39.72;100119.78;1750925;81;27703;-61
2022/03/30 07:43:37;;;;;;;45.43;20.12;;;;;;;14.01;39.67;100118.89;1750942;81;26085;-62
2022/03/30 07:46:08;;;;;;;48.83;17.75;;;;;;;14.14;39.50;100118.33;1750942;81;25803;-63
2022/03/30 07:48:34;;;;;;;44.55;19.57;;;;;;;14.24;39.10;100117.62;1780094;80;25809;-61
2022/03/30 07:51:00;;;;;;;38.88;17.12;;;;;;;14.37;39.22;100125.66;1740066;82;25477;-61
2022/03/30 07:53:27;;;;;;;51.15;18.90;;;;;;;14.50;38.80;100129.13;1740212;82;28478;-61
2022/03/30 07:55:55;;;;;;;35.78;18.55;;;;;;;14.66;38.62;100121.44;1739854;82;25769;-61
2022/03/30 07:58:22;;;;;;;60.38;19.60;;;;;;;14.79;38.40;100124.94;1739877;82;25763;-61
2022/03/30 08:00:49;;;;;;;47.03;20.43;;;;;;;14.92;38.23;100119.78;1740112;82;26736;-62
2022/03/30 08:03:16;;;;;;;49.53;22.07;;;;;;;15.12;38.14;100122.83;1740097;82;25500;-62
2022/03/30 08:05:44;;;;;;;56.40;22.20;;;;;;;15.32;38.02;100125.03;1735298;82;28456;-61
2022/03/30 08:08:11;;;;;;;67.37;24.10;;;;;;;15.53;37.80;100124.33;1718847;82;25717;-62
2022/03/30 08:10:37;;;;;;;80.25;24.02;;;;;;;15.72;37.35;100126.17;1732682;81;25847;-62
2022/03/30 08:13:05;;;;;;;85.47;34.50;;;;;;;15.86;37.10;100119.10;1733021;82;25964;-62
2022/03/30 08:15:33;;;;;;;68.60;24.60;;;;;;;16.02;36.45;100116.69;1733139;81;26063;-63
2022/03/30 08:17:59;;;;;;;66.33;23.50;;;;;;;16.12;35.96;100115.89;1732742;82;27670;-62
2022/03/30 08:23:15;;;;;;;63.13;23.25;;;;;;;16.34;36.12;100111.89;1722227;82;25726;-61
2022/03/30 08:25:42;;;;;;;52.00;22.05;;;;;;;16.53;35.80;100111.79;1730627;81;25812;-62
2022/03/30 08:28:09;;;;;;;68.60;23.45;;;;;;;16.66;34.78;100111.09;1729860;81;25882;-62
2022/03/30 08:30:36;;;;;;;63.17;23.25;;;;;;;16.69;34.95;100110.72;1714586;83;27599;-62
2022/03/30 08:33:04;;;;;;;69.92;23.65;;;;;;;16.83;35.17;100110.34;1724139;82;25677;-61
2022/03/30 08:35:32;;;;;;;59.03;22.80;;;;;;;17.00;35.14;100108.22;1720927;82;25820;-61
2022/03/30 08:37:59;;;;;;;73.40;21.90;;;;;;;17.18;35.00;100110.48;1686280;83;25850;-62
2022/03/30 08:40:27;;;;;;;71.20;22.27;;;;;;;17.38;34.67;100106.56;1719609;82;25795;-61
2022/03/30 08:42:55;;;;;;;70.67;23.50;;;;;;;17.56;34.33;100103.86;1726827;82;27718;-61
2022/03/30 08:45:22;;;;;;;67.78;22.50;;;;;;;17.77;33.62;100104.31;1711148;82;25687;-61
2022/03/30 08:47:49;;;;;;;56.88;22.20;;;;;;;17.90;33.44;100104.40;1701078;83;25797;-62
2022/03/30 08:50:17;;;;;;;73.85;26.42;;;;;;;18.08;32.84;100099.80;1709015;83;25788;-63
2022/03/30 08:52:45;;;;;;;63.65;21.97;;;;;;;18.20;32.62;100096.50;1725821;82;25703;-61
2022/03/30 08:55:13;;;;;;;67.82;23.47;;;;;;;18.32;32.50;100094.03;1717585;82;27403;-61
2022/03/30 08:57:40;;;;;;;54.18;21.60;;;;;;;18.45;32.32;100090.01;1692690;81;25848;-61
2022/03/30 09:00:16;;;;;;;66.62;22.55;;;;;;;18.55;31.56;100085.52;1699164;83;25795;-62
2022/03/30 09:02:59;;;;;;;73.78;23.22;;;;;;;18.60;31.21;100086.58;1705343;82;25778;-62
2022/03/30 09:05:25;;;;;;;64.82;21.07;;;;;;;18.78;31.71;100081.88;1676903;85;25903;-63
2022/03/30 09:07:57;;;;;;;57.05;20.45;;;;;;;18.94;31.04;100074.41;1700034;82;27692;-62
2022/03/30 09:10:30;;;;;;;51.37;18.57;;;;;;;19.12;31.00;100073.77;1691383;82;25801;-63
2022/03/30 09:12:57;;;;;;;58.35;19.77;;;;;;;19.26;30.43;100064.24;1687296;84;25524;-62
2022/03/30 09:15:25;;;;;;;59.80;19.92;;;;;;;19.43;30.41;100063.26;1687710;83;25966;-63
2022/03/30 09:18:04;;;;;;;49.00;21.17;;;;;;;19.57;30.28;100055.38;1687103;85;25806;-63
2022/03/30 09:20:33;;;;;;;43.05;19.40;;;;;;;19.69;29.29;100057.75;1687624;83;28153;-64
2022/03/30 09:23:00;;;;;;;42.23;19.12;;;;;;;19.83;28.44;100048.17;1687049;84;25889;-62
2022/03/30 09:25:31;;;;;;;48.08;19.67;;;;;;;20.01;28.32;100052.44;1696627;82;25711;-62
2022/03/30 09:28:00;;;;;;;39.35;19.05;;;;;;;20.17;27.86;100044.27;1704779;82;25860;-62
2022/03/30 09:30:29;;;;;;;36.40;17.32;;;;;;;20.36;27.12;100045.74;1705104;84;25672;-63
2022/03/30 09:32:58;;;;;;;28.87;17.40;;;;;;;20.81;25.82;100031.20;1705137;84;27473;-63
2022/03/30 09:35:38;;;;;;;41.53;17.80;;;;;;;21.32;25.96;100035.27;1736786;82;25799;-62
2022/03/30 09:38:17;;;;;;;36.25;19.23;;;;;;;21.89;25.64;100026.89;1736950;81;25516;-63
2022/03/30 09:40:55;;;;;;;35.10;19.02;;;;;;;22.40;25.27;100026.69;1718637;83;26621;-62
2022/03/30 09:43:28;;;;;;;42.85;17.62;;;;;;;22.61;24.11;100019.29;1752123;81;26351;-62
2022/03/30 09:46:09;;;;;;;43.50;17.45;;;;;;;22.79;23.99;100016.16;1752211;81;28142;-63
2022/03/30 09:48:40;;;;;;;30.20;15.65;;;;;;;22.82;22.45;100009.67;1750578;80;25650;-64
2022/03/30 09:51:08;;;;;;;34.85;14.75;;;;;;;23.08;21.89;100010.84;1752106;81;25448;-62
2022/03/30 09:53:38;;;;;;;31.68;15.75;;;;;;;23.37;22.07;100001.39;1752282;81;25917;-62
2022/03/30 09:56:18;;;;;;;38.13;16.15;;;;;;;23.61;21.42;100007.69;1752369;81;25756;-63
2022/03/30 09:58:47;;;;;;;29.67;15.08;;;;;;;23.80;21.25;100002.85;1729966;81;27502;-63
2022/03/30 10:01:24;;;;;;;36.93;16.40;;;;;;;23.93;21.28;99998.17;1712962;83;25742;-63
2022/03/30 10:04:00;;;;;;;27.10;13.90;;;;;;;24.29;20.50;99997.52;1712890;83;25745;-63
2022/03/30 10:06:36;;;;;;;30.48;15.25;;;;;;;24.82;19.54;99987.17;1713057;83;25672;-62
2022/03/30 10:09:04;;;;;;;25.35;13.98;;;;;;;25.13;19.24;99989.86;1714106;83;25722;-61
2022/03/30 10:11:31;;;;;;;31.20;16.02;;;;;;;25.41;19.25;99979.83;1714121;82;27716;-62
2022/03/30 10:14:03;;;;;;;35.78;15.20;;;;;;;25.62;18.10;99977.36;1714056;83;25791;-62
2022/03/30 10:16:30;;;;;;;25.97;14.78;;;;;;;26.25;17.34;99975.05;1714550;83;25516;-62
2022/03/30 10:18:56;;;;;;;27.25;13.32;;;;;;;26.40;17.78;99970.24;1691172;83;26017;-64
2022/03/30 10:21:28;;;;;;;24.52;15.35;;;;;;;26.75;17.39;99968.06;1714484;83;25741;-64
2022/03/30 10:24:18;;;;;;;23.87;13.73;;;;;;;26.84;16.85;99972.03;1714194;83;27528;-63
2022/03/30 10:27:13;;;;;;;24.87;13.90;;;;;;;27.09;17.58;99958.12;1685784;85;25873;-63
2022/03/30 10:29:57;;;;;;;24.80;13.50;;;;;;;27.96;16.70;99951.33;1685291;85;25742;-63
2022/03/30 10:32:27;;;;;;;25.43;12.80;;;;;;;28.51;16.62;99950.89;1685833;85;26960;-63
2022/03/30 10:35:06;;;;;;;27.95;12.93;;;;;;;29.10;16.57;99948.63;1664126;85;25983;-64
2022/03/30 10:37:34;;;;;;;27.67;13.20;;;;;;;29.59;15.17;99947.96;1685376;85;27694;-62
2022/03/30 10:40:07;;;;;;;25.52;12.70;;;;;;;29.92;14.86;99952.53;1709286;83;25810;-64
2022/03/30 10:42:54;;;;;;;18.15;11.85;;;;;;;29.51;14.59;99938.85;1710042;83;25711;-61
2022/03/30 10:45:51;;;;;;;28.35;12.28;;;;;;;29.77;14.93;99940.11;1709486;83;25803;-62
2022/03/30 10:48:33;;;;;;;25.17;11.95;;;;;;;30.45;13.67;99933.87;1709411;83;26122;-62
2022/03/30 10:51:14;;;;;;;23.32;11.65;;;;;;;30.74;14.69;99936.41;1709711;83;28448;-62
2022/03/30 10:53:52;;;;;;;20.57;11.57;;;;;;;31.39;14.69;99933.81;1709625;83;25958;-62
2022/03/30 10:56:24;;;;;;;23.55;11.57;;;;;;;32.04;14.30;99926.02;1709536;83;25826;-62
2022/03/30 10:58:58;;;;;;;25.40;11.48;;;;;;;32.33;13.16;99931.42;1727994;82;25862;-63
2022/03/30 11:01:31;;;;;;;22.70;11.03;;;;;;;32.06;12.51;99946.83;1739120;82;25454;-62
2022/03/30 11:04:06;;;;;;;18.80;11.45;;;;;;;32.02;12.65;99929.66;1739247;82;28182;-62
2022/03/30 11:06:40;;;;;;;30.97;11.57;;;;;;;31.81;12.44;99935.53;1737194;81;25782;-62
2022/03/30 11:09:28;;;;;;;19.85;11.35;;;;;;;31.60;12.87;99919.67;1705325;83;25475;-63
2022/03/30 11:12:07;;;;;;;25.60;10.72;;;;;;;31.65;12.46;99914.02;1705599;84;25846;-62
2022/03/30 11:14:41;;;;;;;16.73;10.40;;;;;;;31.72;12.39;99905.36;1707638;83;25732;-63
2022/03/30 11:17:13;;;;;;;17.02;10.63;;;;;;;31.31;12.46;99894.19;1708167;84;27642;-63
2022/03/30 11:20:00;;;;;;;22.58;10.78;;;;;;;31.48;12.86;99886.72;1707437;83;25800;-64
2022/03/30 11:22:30;;;;;;;25.60;11.60;;;;;;;31.42;12.67;99888.77;1685528;84;25728;-63
2022/03/30 11:25:23;;;;;;;21.45;10.95;;;;;;;31.70;12.76;99884.78;1717859;82;26094;-63
2022/03/30 11:28:08;;;;;;;21.73;10.55;;;;;;;31.90;12.64;99880.89;1739271;82;25794;-63
2022/03/30 11:30:43;;;;;;;20.62;10.00;;;;;;;32.01;12.54;99882.95;1738857;81;27563;-63
2022/03/30 11:33:26;;;;;;;20.57;8.80;;;;;;;31.92;11.93;99875.02;1739293;81;25604;-63